Time,TemperatureF,DewpointF,PressureIn,WindDirection,WindDirectionDegrees,WindSpeedMPH,WindSpeedGustMPH,Humidity,HourlyPrecipIn,Conditions,Clouds,dailyrainin,SoftwareType,DateUTC
2013-10-08 00:00:00,60.0,53.0,-100.00,WNW,293,2.0,8.0,79,0.00,,,-99.99,,2013-10-08 04:00:00,
2013-10-08 00:43:00,60.0,53.0,-100.00,WNW,293,2.0,8.0,79,0.00,,,-99.99,,2013-10-08 04:43:00,
2013-10-08 00:53:00,60.0,53.0,-100.00,WNW,293,2.0,8.0,79,0.00,,,-99.99,,2013-10-08 04:53:00,
2013-10-08 01:00:00,58.0,51.0,-100.00,NW,304,2.0,8.0,79,0.00,,,-99.99,,2013-10-08 05:00:00,
2013-10-08 01:42:00,58.0,51.0,-100.00,NW,304,2.0,8.0,79,0.00,,,-99.99,,2013-10-08 05:42:00,
2013-10-08 01:53:00,58.0,51.0,-100.00,NW,304,2.0,8.0,79,0.00,,,-99.99,,2013-10-08 05:53:00,
2013-10-08 02:00:00,57.0,50.0,-100.00,WNW,299,5.0,7.0,78,0.00,,,-99.99,,2013-10-08 06:00:00,
2013-10-08 02:42:00,57.0,50.0,-100.00,WNW,299,5.0,7.0,78,0.00,,,-99.99,,2013-10-08 06:42:00,
2013-10-08 02:52:00,57.0,50.0,-100.00,WNW,299,5.0,7.0,78,0.00,,,-99.99,,2013-10-08 06:52:00,
2013-10-08 03:00:00,54.0,49.0,-100.00,NW,314,5.0,7.0,81,0.00,,,-99.99,,2013-10-08 07:00:00,
2013-10-08 03:42:00,54.0,49.0,-100.00,NW,314,5.0,7.0,81,0.00,,,-99.99,,2013-10-08 07:42:00,
2013-10-08 03:52:00,54.0,49.0,-100.00,NW,314,5.0,7.0,81,0.00,,,-99.99,,2013-10-08 07:52:00,
2013-10-08 04:00:00,53.0,48.0,-100.00,NW,310,3.0,7.0,81,0.00,,,-99.99,,2013-10-08 08:00:00,
2013-10-08 04:42:00,53.0,48.0,-100.00,NW,310,3.0,7.0,81,0.00,,,-99.99,,2013-10-08 08:42:00,
2013-10-08 04:52:00,53.0,48.0,-100.00,NW,310,3.0,7.0,81,0.00,,,-99.99,,2013-10-08 08:52:00,
2013-10-08 05:00:00,53.0,46.0,-100.00,NW,312,2.0,5.0,78,0.00,,,-99.99,,2013-10-08 09:00:00,
2013-10-08 05:43:00,53.0,46.0,-100.00,NW,312,2.0,5.0,78,0.00,,,-99.99,,2013-10-08 09:43:00,
2013-10-08 05:53:00,53.0,46.0,-100.00,NW,312,2.0,5.0,78,0.00,,,-99.99,,2013-10-08 09:53:00,
2013-10-08 06:00:00,53.0,45.0,-100.00,NW,313,3.0,7.0,74,0.00,,,-99.99,,2013-10-08 10:00:00,
2013-10-08 06:42:00,53.0,45.0,-100.00,NW,313,3.0,7.0,74,0.00,,,-99.99,,2013-10-08 10:42:00,
2013-10-08 06:53:00,53.0,45.0,-100.00,NW,313,3.0,7.0,74,0.00,,,-99.99,,2013-10-08 10:53:00,
2013-10-08 07:00:00,55.0,45.0,-100.00,NW,316,3.0,11.0,71,0.00,,,-99.99,,2013-10-08 11:00:00,
2013-10-08 07:42:00,55.0,45.0,-100.00,NW,316,3.0,11.0,71,0.00,,,-99.99,,2013-10-08 11:42:00,
2013-10-08 07:52:00,55.0,45.0,-100.00,NW,316,3.0,11.0,71,0.00,,,-99.99,,2013-10-08 11:52:00,
2013-10-08 08:00:00,55.0,46.0,-100.00,NNW,331,3.0,13.0,72,0.00,,,-99.99,,2013-10-08 12:00:00,
2013-10-08 08:42:00,55.0,46.0,-100.00,NNW,331,3.0,13.0,72,0.00,,,-99.99,,2013-10-08 12:42:00,
2013-10-08 08:52:00,55.0,46.0,-100.00,NNW,331,3.0,13.0,72,0.00,,,-99.99,,2013-10-08 12:52:00,
2013-10-08 09:00:00,57.0,48.0,-100.00,NNW,346,4.0,6.0,71,0.00,,,-99.99,,2013-10-08 13:00:00,
2013-10-08 09:42:00,57.0,48.0,-100.00,NNW,346,4.0,6.0,71,0.00,,,-99.99,,2013-10-08 13:42:00,
2013-10-08 09:52:00,57.0,48.0,-100.00,NNW,346,4.0,6.0,71,0.00,,,-99.99,,2013-10-08 13:52:00,
2013-10-08 10:00:00,61.0,47.0,-100.00,North,0,4.0,12.0,60,0.00,,,-99.99,,2013-10-08 14:00:00,
2013-10-08 10:42:00,61.0,47.0,-100.00,North,0,4.0,12.0,60,0.00,,,-99.99,,2013-10-08 14:42:00,
2013-10-08 10:52:00,61.0,47.0,-100.00,North,0,4.0,12.0,60,0.00,,,-99.99,,2013-10-08 14:52:00,
2013-10-08 11:00:00,62.0,45.0,-100.00,North,3,8.0,16.0,52,0.00,,,-99.99,,2013-10-08 15:00:00,
2013-10-08 11:44:00,62.0,45.0,-100.00,North,3,8.0,16.0,52,0.00,,,-99.99,,2013-10-08 15:44:00,
2013-10-08 11:53:00,62.0,45.0,-100.00,North,3,8.0,16.0,52,0.00,,,-99.99,,2013-10-08 15:53:00,
2013-10-08 12:00:00,63.0,43.0,-100.00,NNW,334,11.0,17.0,48,0.00,,,-99.99,,2013-10-08 16:00:00,
2013-10-08 12:42:00,63.0,43.0,-100.00,NNW,334,11.0,17.0,48,0.00,,,-99.99,,2013-10-08 16:42:00,
2013-10-08 12:53:00,63.0,43.0,-100.00,NNW,334,11.0,17.0,48,0.00,,,-99.99,,2013-10-08 16:53:00,
2013-10-08 13:00:00,63.0,41.0,-100.00,NNE,21,14.0,19.0,44,0.00,,,-99.99,,2013-10-08 17:00:00,
2013-10-08 13:43:00,63.0,41.0,-100.00,NNE,21,14.0,19.0,44,0.00,,,-99.99,,2013-10-08 17:43:00,
2013-10-08 13:52:00,63.0,41.0,-100.00,NNE,21,14.0,19.0,44,0.00,,,-99.99,,2013-10-08 17:52:00,
2013-10-08 14:00:00,65.0,42.0,-100.00,NNE,14,5.0,20.0,43,0.00,,,-99.99,,2013-10-08 18:00:00,
2013-10-08 14:42:00,65.0,42.0,-100.00,NNE,14,5.0,20.0,43,0.00,,,-99.99,,2013-10-08 18:42:00,
2013-10-08 14:53:00,65.0,42.0,-100.00,NNE,14,5.0,20.0,43,0.00,,,-99.99,,2013-10-08 18:53:00,
2013-10-08 15:00:00,66.0,41.0,-100.00,NE,36,7.0,15.0,40,0.00,,,-99.99,,2013-10-08 19:00:00,
2013-10-08 15:43:00,66.0,41.0,-100.00,NE,36,7.0,15.0,40,0.00,,,-99.99,,2013-10-08 19:43:00,
2013-10-08 15:53:00,66.0,41.0,-100.00,NE,36,7.0,15.0,40,0.00,,,-99.99,,2013-10-08 19:53:00,
2013-10-08 16:00:00,65.0,41.0,-100.00,NNE,27,5.0,13.0,41,0.00,,,-99.99,,2013-10-08 20:00:00,
2013-10-08 16:42:00,65.0,41.0,-100.00,NNE,27,5.0,13.0,41,0.00,,,-99.99,,2013-10-08 20:42:00,
2013-10-08 16:52:00,65.0,41.0,-100.00,NNE,27,5.0,13.0,41,0.00,,,-99.99,,2013-10-08 20:52:00,
2013-10-08 17:00:00,65.0,44.0,-100.00,NNE,26,2.0,9.0,47,0.00,,,-99.99,,2013-10-08 21:00:00,
2013-10-08 17:44:00,65.0,44.0,-100.00,NNE,26,2.0,9.0,47,0.00,,,-99.99,,2013-10-08 21:44:00,
2013-10-08 17:54:00,65.0,44.0,-100.00,NNE,26,2.0,9.0,47,0.00,,,-99.99,,2013-10-08 21:54:00,
2013-10-08 18:00:00,64.0,39.0,-100.00,NNE,33,5.0,12.0,40,0.00,,,-99.99,,2013-10-08 22:00:00,
2013-10-08 18:49:00,64.0,39.0,-100.00,NNE,33,5.0,12.0,40,0.00,,,-99.99,,2013-10-08 22:49:00,
2013-10-08 18:59:00,64.0,39.0,-100.00,NNE,33,5.0,12.0,40,0.00,,,-99.99,,2013-10-08 22:59:00,
2013-10-08 19:00:00,63.0,43.0,-100.00,NE,42,0.0,11.0,48,0.00,,,-99.99,,2013-10-08 23:00:00,
2013-10-08 19:42:00,63.0,43.0,-100.00,NE,42,0.0,11.0,48,0.00,,,-99.99,,2013-10-08 23:42:00,
2013-10-08 19:53:00,63.0,43.0,-100.00,NE,42,0.0,11.0,48,0.00,,,-99.99,,2013-10-08 23:53:00,
2013-10-08 20:00:00,63.0,42.0,-100.00,ENE,57,4.0,13.0,46,0.00,,,-99.99,,2013-10-09 00:00:00,
2013-10-08 20:43:00,63.0,42.0,-100.00,ENE,57,4.0,13.0,46,0.00,,,-99.99,,2013-10-09 00:43:00,
2013-10-08 20:52:00,63.0,42.0,-100.00,ENE,57,4.0,13.0,46,0.00,,,-99.99,,2013-10-09 00:52:00,
2013-10-08 21:00:00,62.0,42.0,-100.00,NE,56,3.0,11.0,46,0.00,,,-99.99,,2013-10-09 01:00:00,
2013-10-08 21:43:00,62.0,42.0,-100.00,NE,56,3.0,11.0,46,0.00,,,-99.99,,2013-10-09 01:43:00,
2013-10-08 21:52:00,62.0,42.0,-100.00,NE,56,3.0,11.0,46,0.00,,,-99.99,,2013-10-09 01:52:00,
2013-10-08 22:00:00,62.0,43.0,-100.00,ESE,110,4.0,11.0,49,0.00,,,-99.99,,2013-10-09 02:00:00,
2013-10-08 22:42:00,62.0,43.0,-100.00,ESE,110,4.0,11.0,49,0.00,,,-99.99,,2013-10-09 02:42:00,
2013-10-08 22:52:00,62.0,43.0,-100.00,ESE,110,4.0,11.0,49,0.00,,,-99.99,,2013-10-09 02:52:00,
2013-10-08 23:00:00,62.0,44.0,-100.00,NE,39,8.0,13.0,51,0.00,,,-99.99,,2013-10-09 03:00:00,
2013-10-08 23:45:00,62.0,44.0,-100.00,NE,39,8.0,13.0,51,0.00,,,-99.99,,2013-10-09 03:45:00,
2013-10-08 23:54:00,62.0,44.0,-100.00,NE,39,8.0,13.0,51,0.00,,,-99.99,,2013-10-09 03:54:00,